Scott Camp — WDF3203 — position and weather

sailwx.info

Track history (hours):
 
Tides and Currents Weather Stations Pressure Air Temp Water Temp Dewpoint Dewpoint Depression Visibility Wind Speed Wind Dir Waves Ship Positions

Scott Camp

Owner: Florida Marine Transporters, Inc., Mandeville, LA. More information available from US FCC via Universal Licensing System and Coast Guard Vessel Documentation Center.

Last reported at 2017-Oct-18 10:16 UTC. Time now 2017-Oct-20 12:40 UTC.
Position N 29°11' W 095°06'.

Length 27 m; draft 3.2 m.

Type: Towing. MMSI: 367437150.

Date/timePositionNaut miles runAvg speedWind from/ knotsBaromVisibWave heightAir tempDewpointWater temp
2017-Oct-18 10:16N 29°11' W 095°06'23 3.9
2017-Oct-18 04:22N 29°30' W 094°53'2 6.8
2017-Oct-18 04:00N 29°32' W 094°54'3 6.6
2017-Oct-18 03:30N 29°35' W 094°56'3 6.6
2017-Oct-18 03:00N 29°38' W 094°58'3 6.8
2017-Oct-18 02:30N 29°41' W 094°59'3 5.9
2017-Oct-18 02:00N 29°44' W 095°02'3 6.0
2017-Oct-18 01:26N 29°46' W 095°05'2 3.3
2017-Oct-18 00:52N 29°47' W 095°04'5 0.9
2017-Oct-17 19:43N 29°44' W 095°07'2 7.2
2017-Oct-17 19:28N 29°44' W 095°09'2 0.6
2017-Oct-17 15:05N 29°44' W 095°12'0 0.0
2017-Oct-17 14:56N 29°44' W 095°12'0 0.1
2017-Oct-17 13:17N 29°44' W 095°12'0 0.0
2017-Oct-17 12:58N 29°44' W 095°12'0 0.0
2017-Oct-17 12:22N 29°44' W 095°12'0 0.0
2017-Oct-17 11:56N 29°44' W 095°12'0 0.0
2017-Oct-17 11:30N 29°44' W 095°12'0 0.0
2017-Oct-17 10:59N 29°44' W 095°12'0 0.0
2017-Oct-17 10:30N 29°44' W 095°12'0 0.0
2017-Oct-17 09:57N 29°44' W 095°12'0 0.0
2017-Oct-17 09:30N 29°44' W 095°12'0 0.0
2017-Oct-17 08:56N 29°44' W 095°12'0 0.0
2017-Oct-17 08:29N 29°44' W 095°12'0 0.0
2017-Oct-17 07:57N 29°44' W 095°12'0 0.0
2017-Oct-17 07:30N 29°44' W 095°12'0 0.0
2017-Oct-17 07:00N 29°44' W 095°12'0 0.0
2017-Oct-17 06:27N 29°44' W 095°12'0 0.0
2017-Oct-17 05:43N 29°44' W 095°12'0 0.0
2017-Oct-17 04:41N 29°44' W 095°12'0 0.0
2017-Oct-17 04:25N 29°44' W 095°12'0 0.0
2017-Oct-17 04:00N 29°44' W 095°12'0 0.3
2017-Oct-17 03:02N 29°44' W 095°12'0 1.8
2017-Oct-17 02:58N 29°44' W 095°12'0 0.0
2017-Oct-17 02:30N 29°44' W 095°12'0 0.0
2017-Oct-17 02:00N 29°44' W 095°12'0 0.0
2017-Oct-17 01:29N 29°44' W 095°12'0 0.0
2017-Oct-17 00:59N 29°44' W 095°12'0 0.0
2017-Oct-17 00:23N 29°44' W 095°12'0 0.0
2017-Oct-16 23:38N 29°44' W 095°12'0 0.0
2017-Oct-16 23:28N 29°44' W 095°12'0 0.0
2017-Oct-16 22:48N 29°44' W 095°12'0 0.0
2017-Oct-16 21:13N 29°44' W 095°12'0 0.1
2017-Oct-16 18:17N 29°44' W 095°12'3 5.0
2017-Oct-16 17:39N 29°44' W 095°09'5 3.1
2017-Oct-16 15:57N 29°47' W 095°04'2 1.0
2017-Oct-16 14:02N 29°46' W 095°05'0 0.0
2017-Oct-15 02:49N 29°46' W 095°05'3 6.8
2017-Oct-15 02:24N 29°44' W 095°08'3 1.3
2017-Oct-15 00:05N 29°46' W 095°05'3 0.6
2017-Oct-14 19:32N 29°44' W 095°07'1 7.3
2017-Oct-14 19:23N 29°44' W 095°09'0 0.0
2017-Oct-14 18:10N 29°44' W 095°09'3 6.2
2017-Oct-14 17:41N 29°45' W 095°06'3 0.2
2017-Oct-14 06:53N 29°47' W 095°04'2 1.4
2017-Oct-14 05:33N 29°46' W 095°05'0 6.0
2017-Oct-14 05:30N 29°46' W 095°05'1 0.0
2017-Oct-12 08:44N 29°46' W 095°06'1 5.2
2017-Oct-12 08:30N 29°46' W 095°05'4 6.1
2017-Oct-12 07:55N 29°44' W 095°01'0 0.6
2017-Oct-12 07:30N 29°44' W 095°01'0 0.0
2017-Oct-12 07:00N 29°44' W 095°01'0 0.0
2017-Oct-12 06:30N 29°44' W 095°01'0 0.0
2017-Oct-12 05:59N 29°44' W 095°01'0 0.0
2017-Oct-12 05:30N 29°44' W 095°01'0 0.0
2017-Oct-12 05:00N 29°44' W 095°01'0 0.3
2017-Oct-12 04:30N 29°44' W 095°01'0 0.0
2017-Oct-12 04:00N 29°44' W 095°01'0 0.1
2017-Oct-12 03:25N 29°44' W 095°01'2 5.2
2017-Oct-12 02:59N 29°45' W 095°04'2 3.2
2017-Oct-12 02:20N 29°47' W 095°05'1 0.2
2017-Oct-11 20:08N 29°47' W 095°04'0 0.0
2017-Oct-11 20:00N 29°47' W 095°04'2 0.8
2017-Oct-11 17:40N 29°46' W 095°05'3 0.1
2017-Oct-10 16:04N 29°44' W 095°03'1 6.3
2017-Oct-10 15:56N 29°44' W 095°02'2 5.0
2017-Oct-10 15:29N 29°42' W 095°00'3 5.7
2017-Oct-10 15:00N 29°40' W 094°58'7 6.6
2017-Oct-10 14:00N 29°34' W 094°55'3 6.6
2017-Oct-10 13:30N 29°31' W 094°53'71 4.1
2017-Oct-09 20:23N 30°04' W 093°41'2 4.5
2017-Oct-09 19:59N 30°04' W 093°39'2 4.9
2017-Oct-09 19:30N 30°04' W 093°36'2 4.5
2017-Oct-09 19:00N 30°04' W 093°33'2 4.4
2017-Oct-09 18:30N 30°04' W 093°31'2 4.5
2017-Oct-09 18:00N 30°04' W 093°28'2 4.5
2017-Oct-09 17:30N 30°04' W 093°26'2 4.4
2017-Oct-09 17:00N 30°04' W 093°23'2 3.5
2017-Oct-09 16:30N 30°04' W 093°21'2 3.3
2017-Oct-09 16:00N 30°05' W 093°20'1 1.8
2017-Oct-09 15:30N 30°06' W 093°20'1 1.4
2017-Oct-09 15:00N 30°05' W 093°20'0 0.6
2017-Oct-09 14:30N 30°05' W 093°20'0 0.0
2017-Oct-09 14:00N 30°05' W 093°20'0 0.0
2017-Oct-09 13:30N 30°05' W 093°20'0 0.0
2017-Oct-09 13:00N 30°05' W 093°20'0 0.0
2017-Oct-09 12:30N 30°05' W 093°20'0 0.0
2017-Oct-09 12:00N 30°05' W 093°20'0 0.0
2017-Oct-09 11:30N 30°05' W 093°20'0 0.0
2017-Oct-09 11:00N 30°05' W 093°20'0 0.0
2017-Oct-09 10:30N 30°05' W 093°20'0 0.0
2017-Oct-09 10:00N 30°05' W 093°20'0 0.0
2017-Oct-09 09:30N 30°05' W 093°20'0 0.0
2017-Oct-09 09:00N 30°05' W 093°20'0 0.0
2017-Oct-09 08:30N 30°05' W 093°20'0 0.0
2017-Oct-09 08:00N 30°05' W 093°20'0 0.0
2017-Oct-09 07:30N 30°05' W 093°20'0 0.0
2017-Oct-09 07:00N 30°05' W 093°20'0 0.0
2017-Oct-09 06:30N 30°05' W 093°20'0 0.0
2017-Oct-09 06:00N 30°05' W 093°20'0 0.0
2017-Oct-09 05:30N 30°05' W 093°20'0 0.0
2017-Oct-09 05:00N 30°05' W 093°20'0 0.0
2017-Oct-09 04:30N 30°05' W 093°20'0 0.0
2017-Oct-09 04:00N 30°05' W 093°20'0 0.0
2017-Oct-09 03:30N 30°05' W 093°20'0 0.0
2017-Oct-09 03:00N 30°05' W 093°20'0 0.0
2017-Oct-09 02:30N 30°05' W 093°20'0 0.0
2017-Oct-09 02:00N 30°05' W 093°20'0 0.0
2017-Oct-09 01:30N 30°05' W 093°20'0 0.0
2017-Oct-09 01:00N 30°05' W 093°20'0 0.0
2017-Oct-09 00:30N 30°05' W 093°20'0 0.0
2017-Oct-09 00:00N 30°05' W 093°20'0 0.0
2017-Oct-08 23:30N 30°05' W 093°20'0 0.0
2017-Oct-08 23:00N 30°05' W 093°20'0 0.0
2017-Oct-08 22:30N 30°05' W 093°20'0 0.0
2017-Oct-08 22:00N 30°05' W 093°20'0 0.0
2017-Oct-08 21:30N 30°05' W 093°20'0 0.0
2017-Oct-08 21:00N 30°05' W 093°20'0 0.0
2017-Oct-08 20:30N 30°05' W 093°20'0 0.0
2017-Oct-08 20:00N 30°05' W 093°20'0 0.0
2017-Oct-08 19:30N 30°05' W 093°20'0 0.0
2017-Oct-08 19:00N 30°05' W 093°20'0 0.0
2017-Oct-08 18:30N 30°05' W 093°20'0 0.0
2017-Oct-08 18:00N 30°05' W 093°20'0 0.0
2017-Oct-08 17:30N 30°05' W 093°20'0 0.0
2017-Oct-08 17:00N 30°05' W 093°20'0 0.0
2017-Oct-08 16:30N 30°05' W 093°20'0 0.0
2017-Oct-08 16:00N 30°05' W 093°20'0 0.0
2017-Oct-08 15:30N 30°05' W 093°20'0 0.0
2017-Oct-08 15:00N 30°05' W 093°20'0 0.0
2017-Oct-08 14:30N 30°05' W 093°20'0 0.0
2017-Oct-08 14:00N 30°05' W 093°20'0 0.0
2017-Oct-08 13:30N 30°05' W 093°20'0 0.0
2017-Oct-08 13:00N 30°05' W 093°20'0 0.0
2017-Oct-08 12:30N 30°05' W 093°20'0 0.0
2017-Oct-08 12:00N 30°05' W 093°20'0 0.0
2017-Oct-08 11:30N 30°05' W 093°20'0 0.0
2017-Oct-08 11:00N 30°05' W 093°20'0 0.0
2017-Oct-08 10:30N 30°05' W 093°20'  
Track history (hours):
 
Tides and Currents Weather Stations Pressure Air Temp Water Temp Dewpoint Dewpoint Depression Visibility Wind Speed Wind Dir Waves Ship Positions

Scott Camp

Owner: Florida Marine Transporters, Inc., Mandeville, LA. More information available from US FCC via Universal Licensing System and Coast Guard Vessel Documentation Center.

Last reported at 2017-Oct-18 10:16 UTC. Time now 2017-Oct-20 12:40 UTC.
Position N 29°11' W 095°06'.

Length 27 m; draft 3.2 m.

Type: Towing. MMSI: 367437150.

Date/timePositionNaut miles runAvg speedWind from/ knotsBaromVisibWave heightAir tempDewpointWater temp
2017-Oct-18 10:16N 29°11' W 095°06'23 3.9
2017-Oct-18 04:22N 29°30' W 094°53'2 6.8
2017-Oct-18 04:00N 29°32' W 094°54'3 6.6
2017-Oct-18 03:30N 29°35' W 094°56'3 6.6
2017-Oct-18 03:00N 29°38' W 094°58'3 6.8
2017-Oct-18 02:30N 29°41' W 094°59'3 5.9
2017-Oct-18 02:00N 29°44' W 095°02'3 6.0
2017-Oct-18 01:26N 29°46' W 095°05'2 3.3
2017-Oct-18 00:52N 29°47' W 095°04'5 0.9
2017-Oct-17 19:43N 29°44' W 095°07'2 7.2
2017-Oct-17 19:28N 29°44' W 095°09'2 0.6
2017-Oct-17 15:05N 29°44' W 095°12'0 0.0
2017-Oct-17 14:56N 29°44' W 095°12'0 0.1
2017-Oct-17 13:17N 29°44' W 095°12'0 0.0
2017-Oct-17 12:58N 29°44' W 095°12'0 0.0
2017-Oct-17 12:22N 29°44' W 095°12'0 0.0
2017-Oct-17 11:56N 29°44' W 095°12'0 0.0
2017-Oct-17 11:30N 29°44' W 095°12'0 0.0
2017-Oct-17 10:59N 29°44' W 095°12'0 0.0
2017-Oct-17 10:30N 29°44' W 095°12'0 0.0
2017-Oct-17 09:57N 29°44' W 095°12'0 0.0
2017-Oct-17 09:30N 29°44' W 095°12'0 0.0
2017-Oct-17 08:56N 29°44' W 095°12'0 0.0
2017-Oct-17 08:29N 29°44' W 095°12'0 0.0
2017-Oct-17 07:57N 29°44' W 095°12'0 0.0
2017-Oct-17 07:30N 29°44' W 095°12'0 0.0
2017-Oct-17 07:00N 29°44' W 095°12'0 0.0
2017-Oct-17 06:27N 29°44' W 095°12'0 0.0
2017-Oct-17 05:43N 29°44' W 095°12'0 0.0
2017-Oct-17 04:41N 29°44' W 095°12'0 0.0
2017-Oct-17 04:25N 29°44' W 095°12'0 0.0
2017-Oct-17 04:00N 29°44' W 095°12'0 0.3
2017-Oct-17 03:02N 29°44' W 095°12'0 1.8
2017-Oct-17 02:58N 29°44' W 095°12'0 0.0
2017-Oct-17 02:30N 29°44' W 095°12'0 0.0
2017-Oct-17 02:00N 29°44' W 095°12'0 0.0
2017-Oct-17 01:29N 29°44' W 095°12'0 0.0
2017-Oct-17 00:59N 29°44' W 095°12'0 0.0
2017-Oct-17 00:23N 29°44' W 095°12'0 0.0
2017-Oct-16 23:38N 29°44' W 095°12'0 0.0
2017-Oct-16 23:28N 29°44' W 095°12'0 0.0
2017-Oct-16 22:48N 29°44' W 095°12'0 0.0
2017-Oct-16 21:13N 29°44' W 095°12'0 0.1
2017-Oct-16 18:17N 29°44' W 095°12'3 5.0
2017-Oct-16 17:39N 29°44' W 095°09'5 3.1
2017-Oct-16 15:57N 29°47' W 095°04'2 1.0
2017-Oct-16 14:02N 29°46' W 095°05'0 0.0
2017-Oct-15 02:49N 29°46' W 095°05'3 6.8
2017-Oct-15 02:24N 29°44' W 095°08'3 1.3
2017-Oct-15 00:05N 29°46' W 095°05'3 0.6
2017-Oct-14 19:32N 29°44' W 095°07'1 7.3
2017-Oct-14 19:23N 29°44' W 095°09'0 0.0
2017-Oct-14 18:10N 29°44' W 095°09'3 6.2
2017-Oct-14 17:41N 29°45' W 095°06'3 0.2
2017-Oct-14 06:53N 29°47' W 095°04'2 1.4
2017-Oct-14 05:33N 29°46' W 095°05'0 6.0
2017-Oct-14 05:30N 29°46' W 095°05'1 0.0
2017-Oct-12 08:44N 29°46' W 095°06'1 5.2
2017-Oct-12 08:30N 29°46' W 095°05'4 6.1
2017-Oct-12 07:55N 29°44' W 095°01'0 0.6
2017-Oct-12 07:30N 29°44' W 095°01'0 0.0
2017-Oct-12 07:00N 29°44' W 095°01'0 0.0
2017-Oct-12 06:30N 29°44' W 095°01'0 0.0
2017-Oct-12 05:59N 29°44' W 095°01'0 0.0
2017-Oct-12 05:30N 29°44' W 095°01'0 0.0
2017-Oct-12 05:00N 29°44' W 095°01'0 0.3
2017-Oct-12 04:30N 29°44' W 095°01'0 0.0
2017-Oct-12 04:00N 29°44' W 095°01'0 0.1
2017-Oct-12 03:25N 29°44' W 095°01'2 5.2
2017-Oct-12 02:59N 29°45' W 095°04'2 3.2
2017-Oct-12 02:20N 29°47' W 095°05'1 0.2
2017-Oct-11 20:08N 29°47' W 095°04'0 0.0
2017-Oct-11 20:00N 29°47' W 095°04'2 0.8
2017-Oct-11 17:40N 29°46' W 095°05'3 0.1
2017-Oct-10 16:04N 29°44' W 095°03'1 6.3
2017-Oct-10 15:56N 29°44' W 095°02'2 5.0
2017-Oct-10 15:29N 29°42' W 095°00'3 5.7
2017-Oct-10 15:00N 29°40' W 094°58'7 6.6
2017-Oct-10 14:00N 29°34' W 094°55'3 6.6
2017-Oct-10 13:30N 29°31' W 094°53'71 4.1
2017-Oct-09 20:23N 30°04' W 093°41'2 4.5
2017-Oct-09 19:59N 30°04' W 093°39'2 4.9
2017-Oct-09 19:30N 30°04' W 093°36'2 4.5
2017-Oct-09 19:00N 30°04' W 093°33'2 4.4
2017-Oct-09 18:30N 30°04' W 093°31'2 4.5
2017-Oct-09 18:00N 30°04' W 093°28'2 4.5
2017-Oct-09 17:30N 30°04' W 093°26'2 4.4
2017-Oct-09 17:00N 30°04' W 093°23'2 3.5
2017-Oct-09 16:30N 30°04' W 093°21'2 3.3
2017-Oct-09 16:00N 30°05' W 093°20'1 1.8
2017-Oct-09 15:30N 30°06' W 093°20'1 1.4
2017-Oct-09 15:00N 30°05' W 093°20'0 0.6
2017-Oct-09 14:30N 30°05' W 093°20'0 0.0
2017-Oct-09 14:00N 30°05' W 093°20'0 0.0
2017-Oct-09 13:30N 30°05' W 093°20'0 0.0
2017-Oct-09 13:00N 30°05' W 093°20'0 0.0
2017-Oct-09 12:30N 30°05' W 093°20'0 0.0
2017-Oct-09 12:00N 30°05' W 093°20'0 0.0
2017-Oct-09 11:30N 30°05' W 093°20'0 0.0
2017-Oct-09 11:00N 30°05' W 093°20'0 0.0
2017-Oct-09 10:30N 30°05' W 093°20'0 0.0
2017-Oct-09 10:00N 30°05' W 093°20'0 0.0
2017-Oct-09 09:30N 30°05' W 093°20'0 0.0
2017-Oct-09 09:00N 30°05' W 093°20'0 0.0
2017-Oct-09 08:30N 30°05' W 093°20'0 0.0
2017-Oct-09 08:00N 30°05' W 093°20'0 0.0
2017-Oct-09 07:30N 30°05' W 093°20'0 0.0
2017-Oct-09 07:00N 30°05' W 093°20'0 0.0
2017-Oct-09 06:30N 30°05' W 093°20'0 0.0
2017-Oct-09 06:00N 30°05' W 093°20'0 0.0
2017-Oct-09 05:30N 30°05' W 093°20'0 0.0
2017-Oct-09 05:00N 30°05' W 093°20'0 0.0
2017-Oct-09 04:30N 30°05' W 093°20'0 0.0
2017-Oct-09 04:00N 30°05' W 093°20'0 0.0
2017-Oct-09 03:30N 30°05' W 093°20'0 0.0
2017-Oct-09 03:00N 30°05' W 093°20'0 0.0
2017-Oct-09 02:30N 30°05' W 093°20'0 0.0
2017-Oct-09 02:00N 30°05' W 093°20'0 0.0
2017-Oct-09 01:30N 30°05' W 093°20'0 0.0
2017-Oct-09 01:00N 30°05' W 093°20'0 0.0
2017-Oct-09 00:30N 30°05' W 093°20'0 0.0
2017-Oct-09 00:00N 30°05' W 093°20'0 0.0
2017-Oct-08 23:30N 30°05' W 093°20'0 0.0
2017-Oct-08 23:00N 30°05' W 093°20'0 0.0
2017-Oct-08 22:30N 30°05' W 093°20'0 0.0
2017-Oct-08 22:00N 30°05' W 093°20'0 0.0
2017-Oct-08 21:30N 30°05' W 093°20'0 0.0
2017-Oct-08 21:00N 30°05' W 093°20'0 0.0
2017-Oct-08 20:30N 30°05' W 093°20'0 0.0
2017-Oct-08 20:00N 30°05' W 093°20'0 0.0
2017-Oct-08 19:30N 30°05' W 093°20'0 0.0
2017-Oct-08 19:00N 30°05' W 093°20'0 0.0
2017-Oct-08 18:30N 30°05' W 093°20'0 0.0
2017-Oct-08 18:00N 30°05' W 093°20'0 0.0
2017-Oct-08 17:30N 30°05' W 093°20'0 0.0
2017-Oct-08 17:00N 30°05' W 093°20'0 0.0
2017-Oct-08 16:30N 30°05' W 093°20'0 0.0
2017-Oct-08 16:00N 30°05' W 093°20'0 0.0
2017-Oct-08 15:30N 30°05' W 093°20'0 0.0
2017-Oct-08 15:00N 30°05' W 093°20'0 0.0
2017-Oct-08 14:30N 30°05' W 093°20'0 0.0
2017-Oct-08 14:00N 30°05' W 093°20'0 0.0
2017-Oct-08 13:30N 30°05' W 093°20'0 0.0
2017-Oct-08 13:00N 30°05' W 093°20'0 0.0
2017-Oct-08 12:30N 30°05' W 093°20'0 0.0
2017-Oct-08 12:00N 30°05' W 093°20'0 0.0
2017-Oct-08 11:30N 30°05' W 093°20'0 0.0
2017-Oct-08 11:00N 30°05' W 093°20'0 0.0
2017-Oct-08 10:30N 30°05' W 093°20'  

Dump ship's entire track history